sensor_id;sensor_type;location;lat;lon;timestamp;P1;durP1;ratioP1;P2;durP2;ratioP2
19810;SDS011;10065;49.632;8.346;2024-01-27T04:01:31;8.07;;;2.23;;
19810;SDS011;10065;49.632;8.346;2024-01-27T08:56:44;18.60;;;7.97;;
19810;SDS011;10065;49.632;8.346;2024-01-27T08:59:22;13.60;;;5.70;;
19810;SDS011;10065;49.632;8.346;2024-01-27T09:02:00;14.07;;;6.23;;
19810;SDS011;10065;49.632;8.346;2024-01-27T09:04:29;18.70;;;5.40;;
19810;SDS011;10065;49.632;8.346;2024-01-27T09:07:00;19.77;;;5.43;;
19810;SDS011;10065;49.632;8.346;2024-01-27T09:09:32;13.60;;;5.57;;
19810;SDS011;10065;49.632;8.346;2024-01-27T09:12:07;14.10;;;5.40;;
19810;SDS011;10065;49.632;8.346;2024-01-27T09:14:39;10.63;;;4.63;;
19810;SDS011;10065;49.632;8.346;2024-01-27T09:18:03;17.83;;;6.90;;
19810;SDS011;10065;49.632;8.346;2024-01-27T09:20:58;12.13;;;5.63;;
19810;SDS011;10065;49.632;8.346;2024-01-27T09:23:33;14.43;;;4.93;;
19810;SDS011;10065;49.632;8.346;2024-01-27T09:26:08;10.73;;;4.80;;
19810;SDS011;10065;49.632;8.346;2024-01-27T09:28:42;10.17;;;4.30;;
19810;SDS011;10065;49.632;8.346;2024-01-27T09:31:21;10.07;;;3.83;;
19810;SDS011;10065;49.632;8.346;2024-01-27T09:33:56;11.27;;;3.37;;
19810;SDS011;10065;49.632;8.346;2024-01-27T09:36:26;13.73;;;3.83;;
19810;SDS011;10065;49.632;8.346;2024-01-27T09:39:18;9.93;;;4.23;;
19810;SDS011;10065;49.632;8.346;2024-01-27T09:44:48;10.70;;;4.70;;
19810;SDS011;10065;49.632;8.346;2024-01-27T09:47:36;13.35;;;5.72;;
19810;SDS011;10065;49.632;8.346;2024-01-27T09:50:07;11.27;;;4.82;;
19810;SDS011;10065;49.632;8.346;2024-01-27T09:52:40;10.55;;;4.97;;
19810;SDS011;10065;49.632;8.346;2024-01-27T09:55:22;11.38;;;5.03;;
19810;SDS011;10065;49.632;8.346;2024-01-27T09:58:01;10.88;;;5.03;;
19810;SDS011;10065;49.632;8.346;2024-01-27T10:00:35;10.85;;;5.18;;
19810;SDS011;10065;49.632;8.346;2024-01-27T10:03:11;13.10;;;5.43;;
19810;SDS011;10065;49.632;8.346;2024-01-27T10:05:44;11.23;;;5.47;;
19810;SDS011;10065;49.632;8.346;2024-01-27T10:08:24;16.92;;;6.10;;
19810;SDS011;10065;49.632;8.346;2024-01-27T10:10:56;13.73;;;5.75;;
19810;SDS011;10065;49.632;8.346;2024-01-27T10:13:29;10.50;;;5.05;;
19810;SDS011;10065;49.632;8.346;2024-01-27T10:16:00;14.30;;;5.50;;
19810;SDS011;10065;49.632;8.346;2024-01-27T10:18:32;11.65;;;5.55;;
19810;SDS011;10065;49.632;8.346;2024-01-27T10:21:12;11.33;;;5.10;;
19810;SDS011;10065;49.632;8.346;2024-01-27T10:23:42;11.83;;;5.43;;
19810;SDS011;10065;49.632;8.346;2024-01-27T10:26:14;12.63;;;5.17;;
19810;SDS011;10065;49.632;8.346;2024-01-27T10:28:51;12.27;;;4.80;;
19810;SDS011;10065;49.632;8.346;2024-01-27T10:31:25;12.30;;;5.00;;
19810;SDS011;10065;49.632;8.346;2024-01-27T10:33:56;9.83;;;4.70;;
19810;SDS011;10065;49.632;8.346;2024-01-27T10:36:37;9.27;;;4.43;;
19810;SDS011;10065;49.632;8.346;2024-01-27T10:39:19;12.63;;;4.90;;
19810;SDS011;10065;49.632;8.346;2024-01-27T10:41:51;9.50;;;4.53;;
19810;SDS011;10065;49.632;8.346;2024-01-27T10:44:21;11.37;;;5.07;;
19810;SDS011;10065;49.632;8.346;2024-01-27T10:46:55;10.35;;;4.03;;
19810;SDS011;10065;49.632;8.346;2024-01-27T10:49:33;10.00;;;4.65;;
19810;SDS011;10065;49.632;8.346;2024-01-27T10:52:09;11.93;;;4.38;;
19810;SDS011;10065;49.632;8.346;2024-01-27T10:54:45;12.20;;;4.45;;
19810;SDS011;10065;49.632;8.346;2024-01-27T10:57:15;10.00;;;4.53;;
19810;SDS011;10065;49.632;8.346;2024-01-27T11:00:00;32.72;;;8.00;;
19810;SDS011;10065;49.632;8.346;2024-01-27T11:02:41;12.63;;;4.80;;
19810;SDS011;10065;49.632;8.346;2024-01-27T11:05:23;10.48;;;4.50;;
19810;SDS011;10065;49.632;8.346;2024-01-27T11:07:56;10.40;;;4.57;;
19810;SDS011;10065;49.632;8.346;2024-01-27T11:10:29;9.68;;;4.78;;
19810;SDS011;10065;49.632;8.346;2024-01-27T11:13:15;13.55;;;5.53;;
19810;SDS011;10065;49.632;8.346;2024-01-27T11:15:53;11.50;;;6.03;;
19810;SDS011;10065;49.632;8.346;2024-01-27T11:18:29;13.63;;;5.97;;
19810;SDS011;10065;49.632;8.346;2024-01-27T11:20:59;13.43;;;6.18;;
19810;SDS011;10065;49.632;8.346;2024-01-27T11:23:32;11.45;;;6.40;;
19810;SDS011;10065;49.632;8.346;2024-01-27T11:26:03;13.83;;;6.73;;
19810;SDS011;10065;49.632;8.346;2024-01-27T11:28:34;21.47;;;7.00;;
19810;SDS011;10065;49.632;8.346;2024-01-27T11:31:07;14.13;;;6.63;;
19810;SDS011;10065;49.632;8.346;2024-01-27T11:33:46;15.33;;;7.47;;
19810;SDS011;10065;49.632;8.346;2024-01-27T11:36:21;16.90;;;8.03;;
19810;SDS011;10065;49.632;8.346;2024-01-27T11:38:56;12.33;;;7.53;;
19810;SDS011;10065;49.632;8.346;2024-01-27T11:41:26;13.20;;;7.47;;
19810;SDS011;10065;49.632;8.346;2024-01-27T12:39:03;14.13;;;4.28;;
19810;SDS011;10065;49.632;8.346;2024-01-27T12:53:22;17.07;;;4.07;;
19810;SDS011;10065;49.632;8.346;2024-01-27T12:55:51;13.50;;;4.23;;
19810;SDS011;10065;49.632;8.346;2024-01-27T12:58:23;13.83;;;3.93;;
19810;SDS011;10065;49.632;8.346;2024-01-27T13:00:55;19.30;;;4.60;;
19810;SDS011;10065;49.632;8.346;2024-01-27T13:03:26;11.23;;;4.10;;
19810;SDS011;10065;49.632;8.346;2024-01-27T13:05:56;14.17;;;4.73;;
19810;SDS011;10065;49.632;8.346;2024-01-27T13:08:26;11.37;;;4.17;;
19810;SDS011;10065;49.632;8.346;2024-01-27T13:10:55;15.83;;;3.97;;
19810;SDS011;10065;49.632;8.346;2024-01-27T13:13:24;14.40;;;3.90;;
19810;SDS011;10065;49.632;8.346;2024-01-27T13:15:53;14.93;;;4.43;;
19810;SDS011;10065;49.632;8.346;2024-01-27T13:18:25;12.77;;;4.40;;
19810;SDS011;10065;49.632;8.346;2024-01-27T13:20:54;11.67;;;4.47;;
19810;SDS011;10065;49.632;8.346;2024-01-27T13:23:23;10.17;;;3.73;;
19810;SDS011;10065;49.632;8.346;2024-01-27T13:25:57;14.33;;;4.20;;
19810;SDS011;10065;49.632;8.346;2024-01-27T13:28:43;12.57;;;5.17;;
19810;SDS011;10065;49.632;8.346;2024-01-27T13:31:12;13.43;;;4.27;;
19810;SDS011;10065;49.632;8.346;2024-01-27T13:33:43;15.10;;;5.13;;
19810;SDS011;10065;49.632;8.346;2024-01-27T13:36:12;15.43;;;4.27;;
19810;SDS011;10065;49.632;8.346;2024-01-27T13:38:41;15.43;;;4.37;;
19810;SDS011;10065;49.632;8.346;2024-01-27T13:41:11;15.97;;;4.30;;
19810;SDS011;10065;49.632;8.346;2024-01-27T13:43:40;15.50;;;4.70;;
19810;SDS011;10065;49.632;8.346;2024-01-27T13:46:09;15.63;;;3.73;;
19810;SDS011;10065;49.632;8.346;2024-01-27T13:48:38;9.87;;;4.10;;
19810;SDS011;10065;49.632;8.346;2024-01-27T13:51:10;12.73;;;3.70;;
19810;SDS011;10065;49.632;8.346;2024-01-27T13:53:42;8.13;;;2.90;;
19810;SDS011;10065;49.632;8.346;2024-01-27T13:56:20;14.70;;;4.43;;
19810;SDS011;10065;49.632;8.346;2024-01-27T13:58:57;11.77;;;3.93;;
19810;SDS011;10065;49.632;8.346;2024-01-27T14:01:26;15.50;;;3.77;;
19810;SDS011;10065;49.632;8.346;2024-01-27T14:03:55;18.97;;;6.57;;
19810;SDS011;10065;49.632;8.346;2024-01-27T14:06:24;10.83;;;4.43;;
19810;SDS011;10065;49.632;8.346;2024-01-27T14:08:56;19.07;;;5.77;;
19810;SDS011;10065;49.632;8.346;2024-01-27T14:11:27;17.73;;;5.23;;
19810;SDS011;10065;49.632;8.346;2024-01-27T14:13:56;20.27;;;5.73;;
19810;SDS011;10065;49.632;8.346;2024-01-27T14:16:25;21.10;;;6.33;;
19810;SDS011;10065;49.632;8.346;2024-01-27T14:18:55;12.73;;;5.73;;
19810;SDS011;10065;49.632;8.346;2024-01-27T14:21:24;14.70;;;5.83;;
19810;SDS011;10065;49.632;8.346;2024-01-27T14:23:55;20.77;;;5.83;;
19810;SDS011;10065;49.632;8.346;2024-01-27T14:26:36;19.70;;;6.57;;
19810;SDS011;10065;49.632;8.346;2024-01-27T14:29:08;15.83;;;5.70;;
19810;SDS011;10065;49.632;8.346;2024-01-27T14:31:54;15.47;;;5.70;;
19810;SDS011;10065;49.632;8.346;2024-01-27T14:34:23;17.20;;;5.40;;
19810;SDS011;10065;49.632;8.346;2024-01-27T14:36:57;10.63;;;4.80;;
19810;SDS011;10065;49.632;8.346;2024-01-27T14:39:54;10.80;;;4.87;;
19810;SDS011;10065;49.632;8.346;2024-01-27T14:42:30;15.77;;;4.40;;
19810;SDS011;10065;49.632;8.346;2024-01-27T14:45:00;10.13;;;3.43;;
19810;SDS011;10065;49.632;8.346;2024-01-27T14:47:28;12.97;;;4.40;;
19810;SDS011;10065;49.632;8.346;2024-01-27T14:49:56;11.40;;;3.50;;
19810;SDS011;10065;49.632;8.346;2024-01-27T14:52:24;7.90;;;2.73;;
19810;SDS011;10065;49.632;8.346;2024-01-27T14:54:53;12.17;;;3.40;;
19810;SDS011;10065;49.632;8.346;2024-01-27T14:57:21;15.40;;;3.30;;
19810;SDS011;10065;49.632;8.346;2024-01-27T14:59:50;13.13;;;3.47;;
19810;SDS011;10065;49.632;8.346;2024-01-27T15:02:21;13.13;;;3.40;;
19810;SDS011;10065;49.632;8.346;2024-01-27T15:04:53;12.63;;;3.53;;
19810;SDS011;10065;49.632;8.346;2024-01-27T15:07:21;10.07;;;2.60;;
19810;SDS011;10065;49.632;8.346;2024-01-27T15:09:54;14.13;;;3.47;;
19810;SDS011;10065;49.632;8.346;2024-01-27T15:12:22;11.67;;;2.43;;
19810;SDS011;10065;49.632;8.346;2024-01-27T15:14:53;11.07;;;2.53;;
19810;SDS011;10065;49.632;8.346;2024-01-27T15:17:21;6.67;;;2.23;;
19810;SDS011;10065;49.632;8.346;2024-01-27T15:19:51;11.50;;;2.90;;
19810;SDS011;10065;49.632;8.346;2024-01-27T15:22:20;10.17;;;3.17;;
19810;SDS011;10065;49.632;8.346;2024-01-27T15:24:48;10.87;;;2.37;;
19810;SDS011;10065;49.632;8.346;2024-01-27T15:27:16;14.57;;;2.73;;
19810;SDS011;10065;49.632;8.346;2024-01-27T15:29:44;7.63;;;2.37;;
19810;SDS011;10065;49.632;8.346;2024-01-27T15:32:14;7.90;;;1.83;;
19810;SDS011;10065;49.632;8.346;2024-01-27T15:34:44;9.33;;;2.40;;
19810;SDS011;10065;49.632;8.346;2024-01-27T15:37:12;10.77;;;2.47;;
19810;SDS011;10065;49.632;8.346;2024-01-27T15:39:40;14.97;;;2.63;;
19810;SDS011;10065;49.632;8.346;2024-01-27T15:42:09;13.53;;;3.13;;
19810;SDS011;10065;49.632;8.346;2024-01-27T15:44:37;17.53;;;3.03;;
19810;SDS011;10065;49.632;8.346;2024-01-27T15:47:05;12.10;;;2.60;;
19810;SDS011;10065;49.632;8.346;2024-01-27T15:49:36;14.77;;;2.90;;
19810;SDS011;10065;49.632;8.346;2024-01-27T15:52:04;15.63;;;3.53;;
19810;SDS011;10065;49.632;8.346;2024-01-27T15:54:33;16.50;;;3.30;;
19810;SDS011;10065;49.632;8.346;2024-01-27T15:57:02;12.57;;;2.67;;
19810;SDS011;10065;49.632;8.346;2024-01-27T15:59:30;11.90;;;2.97;;
19810;SDS011;10065;49.632;8.346;2024-01-27T16:02:00;19.13;;;2.83;;
19810;SDS011;10065;49.632;8.346;2024-01-27T16:04:28;8.40;;;2.70;;
19810;SDS011;10065;49.632;8.346;2024-01-27T16:06:58;17.07;;;3.53;;
19810;SDS011;10065;49.632;8.346;2024-01-27T16:09:26;15.07;;;3.47;;
19810;SDS011;10065;49.632;8.346;2024-01-27T16:11:56;14.60;;;4.53;;
19810;SDS011;10065;49.632;8.346;2024-01-27T16:14:24;11.13;;;3.37;;
19810;SDS011;10065;49.632;8.346;2024-01-27T16:16:52;11.53;;;3.60;;
19810;SDS011;10065;49.632;8.346;2024-01-27T16:19:20;14.37;;;3.63;;
19810;SDS011;10065;49.632;8.346;2024-01-27T16:21:48;11.67;;;4.07;;
19810;SDS011;10065;49.632;8.346;2024-01-27T16:24:17;13.17;;;3.97;;
19810;SDS011;10065;49.632;8.346;2024-01-27T16:26:45;14.70;;;4.67;;
19810;SDS011;10065;49.632;8.346;2024-01-27T16:29:13;16.00;;;4.67;;
19810;SDS011;10065;49.632;8.346;2024-01-27T16:31:42;17.20;;;4.80;;
19810;SDS011;10065;49.632;8.346;2024-01-27T16:34:10;15.50;;;4.37;;
19810;SDS011;10065;49.632;8.346;2024-01-27T16:36:38;20.03;;;4.53;;
19810;SDS011;10065;49.632;8.346;2024-01-27T16:39:06;16.27;;;5.07;;
19810;SDS011;10065;49.632;8.346;2024-01-27T16:41:37;19.33;;;5.33;;
19810;SDS011;10065;49.632;8.346;2024-01-27T16:44:05;15.80;;;5.33;;
19810;SDS011;10065;49.632;8.346;2024-01-27T16:46:33;15.03;;;5.13;;
19810;SDS011;10065;49.632;8.346;2024-01-27T16:49:02;18.70;;;5.53;;
19810;SDS011;10065;49.632;8.346;2024-01-27T16:51:31;20.50;;;6.07;;
19810;SDS011;10065;49.632;8.346;2024-01-27T16:53:59;18.27;;;5.80;;
19810;SDS011;10065;49.632;8.346;2024-01-27T16:56:27;17.27;;;5.30;;
19810;SDS011;10065;49.632;8.346;2024-01-27T16:58:58;16.50;;;6.17;;
19810;SDS011;10065;49.632;8.346;2024-01-27T17:01:26;14.40;;;5.27;;
19810;SDS011;10065;49.632;8.346;2024-01-27T17:03:55;20.60;;;6.70;;
19810;SDS011;10065;49.632;8.346;2024-01-27T17:06:23;17.60;;;6.60;;
19810;SDS011;10065;49.632;8.346;2024-01-27T17:08:51;13.80;;;5.87;;
19810;SDS011;10065;49.632;8.346;2024-01-27T17:11:20;19.10;;;6.27;;
19810;SDS011;10065;49.632;8.346;2024-01-27T17:13:48;18.27;;;6.97;;
19810;SDS011;10065;49.632;8.346;2024-01-27T17:16:18;25.57;;;7.20;;
19810;SDS011;10065;49.632;8.346;2024-01-27T17:18:46;18.57;;;6.90;;
19810;SDS011;10065;49.632;8.346;2024-01-27T17:21:14;21.90;;;6.27;;
19810;SDS011;10065;49.632;8.346;2024-01-27T17:23:43;24.07;;;7.20;;
19810;SDS011;10065;49.632;8.346;2024-01-27T17:26:11;19.87;;;6.70;;
19810;SDS011;10065;49.632;8.346;2024-01-27T17:28:39;25.70;;;8.90;;
19810;SDS011;10065;49.632;8.346;2024-01-27T17:31:08;24.20;;;8.47;;
19810;SDS011;10065;49.632;8.346;2024-01-27T17:33:38;22.07;;;7.07;;
19810;SDS011;10065;49.632;8.346;2024-01-27T17:36:11;17.57;;;7.43;;
19810;SDS011;10065;49.632;8.346;2024-01-27T17:38:39;20.93;;;7.90;;
19810;SDS011;10065;49.632;8.346;2024-01-27T17:41:07;21.20;;;8.87;;
19810;SDS011;10065;49.632;8.346;2024-01-27T17:43:35;20.63;;;8.43;;
19810;SDS011;10065;49.632;8.346;2024-01-27T17:46:03;22.50;;;9.47;;
19810;SDS011;10065;49.632;8.346;2024-01-27T17:48:31;24.60;;;8.47;;
19810;SDS011;10065;49.632;8.346;2024-01-27T17:51:01;26.27;;;9.57;;
19810;SDS011;10065;49.632;8.346;2024-01-27T17:53:30;28.87;;;9.97;;
19810;SDS011;10065;49.632;8.346;2024-01-27T17:55:58;22.50;;;9.00;;
19810;SDS011;10065;49.632;8.346;2024-01-27T17:58:27;22.60;;;9.67;;
19810;SDS011;10065;49.632;8.346;2024-01-27T18:00:54;25.87;;;8.40;;
19810;SDS011;10065;49.632;8.346;2024-01-27T18:03:22;18.27;;;8.23;;
19810;SDS011;10065;49.632;8.346;2024-01-27T18:05:51;20.30;;;8.90;;
19810;SDS011;10065;49.632;8.346;2024-01-27T18:08:20;24.43;;;9.30;;
19810;SDS011;10065;49.632;8.346;2024-01-27T18:10:48;24.73;;;10.97;;
19810;SDS011;10065;49.632;8.346;2024-01-27T18:13:16;21.47;;;10.67;;
19810;SDS011;10065;49.632;8.346;2024-01-27T18:15:52;29.47;;;10.67;;
19810;SDS011;10065;49.632;8.346;2024-01-27T18:18:20;26.57;;;11.40;;
19810;SDS011;10065;49.632;8.346;2024-01-27T18:20:48;26.73;;;9.67;;
19810;SDS011;10065;49.632;8.346;2024-01-27T18:23:16;26.47;;;12.03;;
19810;SDS011;10065;49.632;8.346;2024-01-27T18:25:45;29.90;;;12.87;;
19810;SDS011;10065;49.632;8.346;2024-01-27T18:28:14;31.37;;;13.53;;
19810;SDS011;10065;49.632;8.346;2024-01-27T18:30:42;28.83;;;13.27;;
19810;SDS011;10065;49.632;8.346;2024-01-27T18:33:11;29.57;;;14.53;;
19810;SDS011;10065;49.632;8.346;2024-01-27T18:35:41;29.80;;;14.93;;
19810;SDS011;10065;49.632;8.346;2024-01-27T18:38:09;36.80;;;16.23;;
19810;SDS011;10065;49.632;8.346;2024-01-27T18:40:38;33.70;;;15.60;;
19810;SDS011;10065;49.632;8.346;2024-01-27T18:43:07;31.20;;;13.63;;
19810;SDS011;10065;49.632;8.346;2024-01-27T18:45:35;26.43;;;13.97;;
19810;SDS011;10065;49.632;8.346;2024-01-27T18:48:05;34.77;;;14.40;;
19810;SDS011;10065;49.632;8.346;2024-01-27T18:50:34;30.70;;;14.67;;
19810;SDS011;10065;49.632;8.346;2024-01-27T18:53:03;32.87;;;14.63;;
19810;SDS011;10065;49.632;8.346;2024-01-27T18:55:31;37.30;;;16.50;;
19810;SDS011;10065;49.632;8.346;2024-01-27T18:58:05;29.43;;;15.07;;
19810;SDS011;10065;49.632;8.346;2024-01-27T19:00:35;28.40;;;15.50;;
19810;SDS011;10065;49.632;8.346;2024-01-27T19:03:04;29.37;;;14.93;;
19810;SDS011;10065;49.632;8.346;2024-01-27T19:05:35;30.80;;;13.60;;
19810;SDS011;10065;49.632;8.346;2024-01-27T19:08:04;32.17;;;13.90;;
19810;SDS011;10065;49.632;8.346;2024-01-27T19:10:32;27.00;;;12.87;;
19810;SDS011;10065;49.632;8.346;2024-01-27T19:13:00;27.77;;;12.43;;
19810;SDS011;10065;49.632;8.346;2024-01-27T19:15:28;32.20;;;14.10;;
19810;SDS011;10065;49.632;8.346;2024-01-27T19:17:59;31.27;;;13.97;;
19810;SDS011;10065;49.632;8.346;2024-01-27T19:20:28;29.23;;;14.53;;
19810;SDS011;10065;49.632;8.346;2024-01-27T19:22:55;29.53;;;13.07;;
19810;SDS011;10065;49.632;8.346;2024-01-27T19:25:24;27.20;;;12.10;;
19810;SDS011;10065;49.632;8.346;2024-01-27T19:27:53;30.03;;;13.37;;
19810;SDS011;10065;49.632;8.346;2024-01-27T19:30:24;29.67;;;12.53;;
19810;SDS011;10065;49.632;8.346;2024-01-27T19:32:52;45.87;;;18.00;;
19810;SDS011;10065;49.632;8.346;2024-01-27T19:35:21;34.47;;;14.57;;
19810;SDS011;10065;49.632;8.346;2024-01-27T19:37:49;34.90;;;13.10;;
19810;SDS011;10065;49.632;8.346;2024-01-27T19:40:17;31.73;;;13.60;;
19810;SDS011;10065;49.632;8.346;2024-01-27T19:42:45;28.27;;;12.10;;
19810;SDS011;10065;49.632;8.346;2024-01-27T19:45:14;33.50;;;13.23;;
19810;SDS011;10065;49.632;8.346;2024-01-27T19:47:42;25.70;;;12.43;;
19810;SDS011;10065;49.632;8.346;2024-01-27T19:50:10;29.63;;;12.47;;
19810;SDS011;10065;49.632;8.346;2024-01-27T19:52:41;24.33;;;11.27;;
19810;SDS011;10065;49.632;8.346;2024-01-27T19:55:09;25.87;;;11.83;;
19810;SDS011;10065;49.632;8.346;2024-01-27T19:57:38;24.50;;;11.93;;
19810;SDS011;10065;49.632;8.346;2024-01-27T20:00:06;23.73;;;10.53;;
19810;SDS011;10065;49.632;8.346;2024-01-27T20:02:35;24.13;;;9.90;;
19810;SDS011;10065;49.632;8.346;2024-01-27T20:05:03;25.13;;;10.40;;
19810;SDS011;10065;49.632;8.346;2024-01-27T20:07:32;23.63;;;9.30;;
19810;SDS011;10065;49.632;8.346;2024-01-27T20:10:02;22.43;;;9.17;;
19810;SDS011;10065;49.632;8.346;2024-01-27T20:12:30;20.93;;;8.63;;
19810;SDS011;10065;49.632;8.346;2024-01-27T20:14:58;29.93;;;9.73;;
19810;SDS011;10065;49.632;8.346;2024-01-27T20:17:26;21.70;;;10.97;;
19810;SDS011;10065;49.632;8.346;2024-01-27T20:19:54;27.30;;;11.37;;
19810;SDS011;10065;49.632;8.346;2024-01-27T20:22:22;29.40;;;10.10;;
19810;SDS011;10065;49.632;8.346;2024-01-27T20:24:50;32.10;;;10.97;;
19810;SDS011;10065;49.632;8.346;2024-01-27T20:27:20;27.93;;;9.47;;
19810;SDS011;10065;49.632;8.346;2024-01-27T20:29:48;29.93;;;10.00;;
19810;SDS011;10065;49.632;8.346;2024-01-27T20:32:15;21.53;;;9.70;;
19810;SDS011;10065;49.632;8.346;2024-01-27T20:34:43;23.63;;;10.67;;
19810;SDS011;10065;49.632;8.346;2024-01-27T20:37:11;25.07;;;9.40;;
19810;SDS011;10065;49.632;8.346;2024-01-27T20:39:39;21.43;;;9.63;;
19810;SDS011;10065;49.632;8.346;2024-01-27T20:42:10;20.67;;;8.30;;
19810;SDS011;10065;49.632;8.346;2024-01-27T20:44:41;31.73;;;9.23;;
19810;SDS011;10065;49.632;8.346;2024-01-27T20:47:09;29.73;;;9.10;;
19810;SDS011;10065;49.632;8.346;2024-01-27T20:49:37;24.73;;;9.63;;
19810;SDS011;10065;49.632;8.346;2024-01-27T20:52:05;24.03;;;9.97;;
19810;SDS011;10065;49.632;8.346;2024-01-27T20:54:33;19.37;;;10.03;;
19810;SDS011;10065;49.632;8.346;2024-01-27T20:57:01;27.10;;;9.50;;
19810;SDS011;10065;49.632;8.346;2024-01-27T20:59:30;31.83;;;10.87;;
19810;SDS011;10065;49.632;8.346;2024-01-27T21:01:59;21.63;;;8.53;;
19810;SDS011;10065;49.632;8.346;2024-01-27T21:04:29;26.60;;;8.50;;
19810;SDS011;10065;49.632;8.346;2024-01-27T21:06:57;20.53;;;8.97;;
19810;SDS011;10065;49.632;8.346;2024-01-27T21:09:25;22.20;;;8.53;;
19810;SDS011;10065;49.632;8.346;2024-01-27T21:11:53;22.27;;;8.93;;
19810;SDS011;10065;49.632;8.346;2024-01-27T21:14:20;21.67;;;9.40;;
19810;SDS011;10065;49.632;8.346;2024-01-27T21:16:49;22.33;;;9.57;;
19810;SDS011;10065;49.632;8.346;2024-01-27T21:19:19;24.03;;;10.07;;
19810;SDS011;10065;49.632;8.346;2024-01-27T21:21:47;25.93;;;9.20;;
19810;SDS011;10065;49.632;8.346;2024-01-27T21:24:15;20.07;;;8.57;;
19810;SDS011;10065;49.632;8.346;2024-01-27T21:26:43;23.47;;;8.90;;
19810;SDS011;10065;49.632;8.346;2024-01-27T21:29:11;21.40;;;8.20;;
19810;SDS011;10065;49.632;8.346;2024-01-27T21:31:39;23.77;;;7.67;;
19810;SDS011;10065;49.632;8.346;2024-01-27T21:34:07;24.57;;;9.07;;
19810;SDS011;10065;49.632;8.346;2024-01-27T21:36:37;18.47;;;7.93;;
19810;SDS011;10065;49.632;8.346;2024-01-27T21:39:05;19.80;;;8.53;;
19810;SDS011;10065;49.632;8.346;2024-01-27T21:41:33;22.77;;;8.00;;
19810;SDS011;10065;49.632;8.346;2024-01-27T21:44:00;25.23;;;9.00;;
19810;SDS011;10065;49.632;8.346;2024-01-27T21:46:29;26.07;;;9.83;;
19810;SDS011;10065;49.632;8.346;2024-01-27T21:48:57;20.60;;;8.67;;
19810;SDS011;10065;49.632;8.346;2024-01-27T21:51:25;23.17;;;8.20;;
19810;SDS011;10065;49.632;8.346;2024-01-27T21:53:54;24.10;;;7.93;;
19810;SDS011;10065;49.632;8.346;2024-01-27T21:56:22;20.03;;;7.33;;
19810;SDS011;10065;49.632;8.346;2024-01-27T21:58:50;22.50;;;7.80;;
19810;SDS011;10065;49.632;8.346;2024-01-27T22:01:18;21.03;;;7.30;;
19810;SDS011;10065;49.632;8.346;2024-01-27T22:03:46;22.40;;;8.37;;
19810;SDS011;10065;49.632;8.346;2024-01-27T22:06:14;27.37;;;9.77;;
19810;SDS011;10065;49.632;8.346;2024-01-27T22:08:43;23.40;;;8.33;;
19810;SDS011;10065;49.632;8.346;2024-01-27T22:11:12;22.97;;;8.37;;
19810;SDS011;10065;49.632;8.346;2024-01-27T22:13:40;24.33;;;7.83;;
19810;SDS011;10065;49.632;8.346;2024-01-27T22:16:08;17.27;;;6.67;;
19810;SDS011;10065;49.632;8.346;2024-01-27T22:18:36;19.07;;;8.13;;
19810;SDS011;10065;49.632;8.346;2024-01-27T22:21:04;26.17;;;8.33;;
19810;SDS011;10065;49.632;8.346;2024-01-27T22:23:33;18.27;;;6.93;;
19810;SDS011;10065;49.632;8.346;2024-01-27T22:26:03;19.13;;;7.10;;
19810;SDS011;10065;49.632;8.346;2024-01-27T22:28:32;19.57;;;7.73;;
19810;SDS011;10065;49.632;8.346;2024-01-27T22:31:00;20.10;;;8.30;;
19810;SDS011;10065;49.632;8.346;2024-01-27T22:33:29;22.47;;;8.43;;
19810;SDS011;10065;49.632;8.346;2024-01-27T22:35:57;19.77;;;6.93;;
19810;SDS011;10065;49.632;8.346;2024-01-27T22:38:26;16.97;;;7.63;;
19810;SDS011;10065;49.632;8.346;2024-01-27T22:40:54;22.93;;;8.27;;
19810;SDS011;10065;49.632;8.346;2024-01-27T22:43:21;19.37;;;7.73;;
19810;SDS011;10065;49.632;8.346;2024-01-27T22:45:51;16.50;;;6.87;;
19810;SDS011;10065;49.632;8.346;2024-01-27T22:48:18;18.90;;;7.37;;
19810;SDS011;10065;49.632;8.346;2024-01-27T22:50:46;22.70;;;8.93;;
19810;SDS011;10065;49.632;8.346;2024-01-27T22:53:15;22.90;;;7.50;;
19810;SDS011;10065;49.632;8.346;2024-01-27T22:55:43;20.03;;;6.47;;
19810;SDS011;10065;49.632;8.346;2024-01-27T22:58:11;21.70;;;7.40;;
19810;SDS011;10065;49.632;8.346;2024-01-27T23:00:39;21.20;;;7.47;;
19810;SDS011;10065;49.632;8.346;2024-01-27T23:03:09;23.53;;;7.13;;
19810;SDS011;10065;49.632;8.346;2024-01-27T23:05:37;28.83;;;8.37;;
19810;SDS011;10065;49.632;8.346;2024-01-27T23:08:05;22.07;;;7.47;;
19810;SDS011;10065;49.632;8.346;2024-01-27T23:10:34;21.30;;;7.23;;
19810;SDS011;10065;49.632;8.346;2024-01-27T23:13:03;19.87;;;7.90;;
19810;SDS011;10065;49.632;8.346;2024-01-27T23:15:31;19.60;;;6.80;;
19810;SDS011;10065;49.632;8.346;2024-01-27T23:17:59;21.20;;;6.80;;
19810;SDS011;10065;49.632;8.346;2024-01-27T23:20:34;18.80;;;6.70;;
19810;SDS011;10065;49.632;8.346;2024-01-27T23:23:02;19.60;;;6.80;;
19810;SDS011;10065;49.632;8.346;2024-01-27T23:25:30;25.27;;;8.50;;
19810;SDS011;10065;49.632;8.346;2024-01-27T23:27:58;23.70;;;7.13;;
19810;SDS011;10065;49.632;8.346;2024-01-27T23:30:27;15.87;;;7.30;;
19810;SDS011;10065;49.632;8.346;2024-01-27T23:32:55;19.30;;;6.70;;
19810;SDS011;10065;49.632;8.346;2024-01-27T23:35:23;20.43;;;6.73;;
19810;SDS011;10065;49.632;8.346;2024-01-27T23:37:52;19.13;;;6.30;;
19810;SDS011;10065;49.632;8.346;2024-01-27T23:40:20;19.80;;;6.83;;
19810;SDS011;10065;49.632;8.346;2024-01-27T23:42:50;17.77;;;6.67;;
19810;SDS011;10065;49.632;8.346;2024-01-27T23:45:18;18.83;;;6.87;;
19810;SDS011;10065;49.632;8.346;2024-01-27T23:47:46;19.60;;;6.53;;
19810;SDS011;10065;49.632;8.346;2024-01-27T23:50:13;22.13;;;5.70;;
19810;SDS011;10065;49.632;8.346;2024-01-27T23:52:41;19.10;;;7.53;;
19810;SDS011;10065;49.632;8.346;2024-01-27T23:55:16;16.33;;;6.80;;
19810;SDS011;10065;49.632;8.346;2024-01-27T23:57:47;22.30;;;6.10;;
